Time;durP1;ratioP1;P1;durP2;ratioP2;P2;SDS_P1;SDS_P2;PMS_P1;PMS_P2;Temp;Humidity;BMP_temperature;BMP_pressure;BME280_temperature;BME280_humidity;BME280_pressure;Samples;Min_cycle;Max_cycle;Signal;HPM_P1;HPM_P2
2023/05/31 00:03:29;;;;;;;;;;;13.90;99.90;;;;;;8392078;28;19931;-72
2023/05/31 00:07:30;;;;;;;;;;;13.90;99.90;;;;;;8386496;28;19924;-72
2023/05/31 00:11:32;;;;;;;;;;;13.90;99.90;;;;;;8392214;28;19940;-71
2023/05/31 00:15:34;;;;;;;;;;;13.80;99.90;;;;;;8388858;28;20408;-71
2023/05/31 00:19:36;;;;;;;;;;;13.80;99.90;;;;;;8377801;28;19924;-71
2023/05/31 00:23:37;;;;;;;;;;;13.80;99.90;;;;;;8366923;28;19940;-72
2023/05/31 00:27:39;;;;;;;;;;;13.70;99.90;;;;;;8392320;28;19925;-71
2023/05/31 00:41:41;;;;;;;;;;;13.70;99.90;;;;;;8380985;28;20055;-72
2023/05/31 00:55:43;;;;;;;;;;;13.50;99.90;;;;;;8391126;28;19951;-71
2023/05/31 00:59:45;;;;;;;;;;;13.40;99.90;;;;;;8384393;28;19933;-71
2023/05/31 01:03:47;;;;;;;;;;;13.40;99.90;;;;;;8374420;28;19928;-71
2023/05/31 01:07:49;;;;;;;;;;;13.40;99.90;;;;;;8366822;28;19924;-71
2023/05/31 01:11:57;;;;;;;;;;;13.40;99.90;;;;;;8385068;28;19929;-71
2023/05/31 01:16:06;;;;;;;;;;;13.40;99.90;;;;;;8370997;28;19931;-71
2023/05/31 01:20:11;;;;;;;;;;;13.30;99.90;;;;;;8390135;28;19998;-71
2023/05/31 01:24:16;;;;;;;;;;;13.30;99.90;;;;;;8388534;28;19977;-71
2023/05/31 01:28:18;;;;;;;;;;;13.20;99.90;;;;;;8392104;28;19925;-71
2023/05/31 01:32:21;;;;;;;;;;;13.20;99.90;;;;;;8382679;28;20383;-71
2023/05/31 01:36:23;;;;;;;;;;;13.20;99.90;;;;;;8386626;28;19932;-71
2023/05/31 01:40:25;;;;;;;;;;;13.20;99.90;;;;;;8372839;28;20314;-71
2023/05/31 01:44:27;;;;;;;;;;;13.10;99.90;;;;;;8389622;28;19929;-71
2023/05/31 01:48:29;;;;;;;;;;;13.10;99.90;;;;;;8395936;28;19935;-71
2023/05/31 01:52:31;;;;;;;;;;;13.10;99.90;;;;;;8383696;28;19966;-71
2023/05/31 01:56:33;;;;;;;;;;;13.00;99.90;;;;;;8382938;28;20450;-71
2023/05/31 02:00:35;;;;;;;;;;;13.00;99.90;;;;;;8369177;28;19935;-71
2023/05/31 02:04:37;;;;;;;;;;;13.10;99.90;;;;;;8366828;28;19969;-71
2023/05/31 02:08:40;;;;;;;;;;;13.10;99.90;;;;;;8381148;28;20360;-71
2023/05/31 02:12:42;;;;;;;;;;;13.00;99.90;;;;;;8389859;28;20334;-71
2023/05/31 02:16:43;;;;;;;;;;;12.90;99.90;;;;;;8386237;28;19924;-71
2023/05/31 02:20:45;;;;;;;;;;;12.90;99.90;;;;;;8386587;28;20299;-71
2023/05/31 02:24:47;;;;;;;;;;;12.90;99.90;;;;;;8375679;28;20283;-71
2023/05/31 02:28:49;;;;;;;;;;;12.90;99.90;;;;;;8387588;28;19925;-71
2023/05/31 02:32:51;;;;;;;;;;;12.80;99.90;;;;;;8384044;28;19924;-71
2023/05/31 02:36:53;;;;;;;;;;;12.80;99.90;;;;;;8380664;28;19963;-71
2023/05/31 02:40:55;;;;;;;;;;;12.70;99.90;;;;;;8386823;28;20324;-71
2023/05/31 02:44:56;;;;;;;;;;;12.70;99.90;;;;;;8386509;28;19935;-72
2023/05/31 02:48:58;;;;;;;;;;;12.70;99.90;;;;;;8380198;28;20053;-71
2023/05/31 02:53:05;;;;;;;;;;;12.60;99.90;;;;;;8393505;28;19931;-70
2023/05/31 02:57:07;;;;;;;;;;;12.60;99.90;;;;;;8366475;28;21347;-71
2023/05/31 03:01:09;;;;;;;;;;;12.60;99.90;;;;;;8376172;28;20424;-71
2023/05/31 03:05:10;;;;;;;;;;;12.60;99.90;;;;;;8374992;28;20268;-71
2023/05/31 03:09:16;;;;;;;;;;;12.50;99.90;;;;;;8394019;28;20589;-70
2023/05/31 03:13:18;;;;;;;;;;;12.50;99.90;;;;;;8389553;28;19924;-72
2023/05/31 03:17:20;;;;;;;;;;;12.50;99.90;;;;;;8391653;28;19928;-71
2023/05/31 03:21:21;;;;;;;;;;;12.40;99.90;;;;;;8374934;28;19931;-71
2023/05/31 03:25:24;;;;;;;;;;;12.40;99.90;;;;;;8395001;28;19927;-71
2023/05/31 03:29:26;;;;;;;;;;;12.40;99.90;;;;;;8379661;28;19979;-71
2023/05/31 03:33:28;;;;;;;;;;;12.30;99.90;;;;;;8398029;28;19981;-71
2023/05/31 03:37:30;;;;;;;;;;;12.30;99.90;;;;;;8381982;28;19977;-71
2023/05/31 03:41:31;;;;;;;;;;;12.30;99.90;;;;;;8397010;28;19990;-71
2023/05/31 03:45:33;;;;;;;;;;;12.30;99.90;;;;;;8394113;28;20338;-71
2023/05/31 03:49:35;;;;;;;;;;;12.30;99.90;;;;;;8393133;28;19954;-71
2023/05/31 03:53:37;;;;;;;;;;;12.30;99.90;;;;;;8395087;28;19955;-71
2023/05/31 03:57:38;;;;;;;;;;;12.30;99.90;;;;;;8392071;28;21571;-71
2023/05/31 04:01:41;;;;;;;;;;;12.20;99.90;;;;;;8387412;28;20419;-71
2023/05/31 04:05:43;;;;;;;;;;;12.20;99.90;;;;;;8385040;28;20296;-71
2023/05/31 04:09:44;;;;;;;;;;;12.30;99.90;;;;;;8394359;28;19978;-71
2023/05/31 04:13:46;;;;;;;;;;;12.20;99.90;;;;;;8395721;28;19940;-71
2023/05/31 04:17:48;;;;;;;;;;;12.20;99.90;;;;;;8397807;28;19985;-71
2023/05/31 04:21:49;;;;;;;;;;;12.30;99.90;;;;;;8376264;28;19932;-71
2023/05/31 04:25:51;;;;;;;;;;;12.20;99.90;;;;;;8392237;28;19925;-72
2023/05/31 04:29:57;;;;;;;;;;;12.30;99.90;;;;;;8378321;28;20299;-71
2023/05/31 04:33:59;;;;;;;;;;;12.30;99.90;;;;;;8389817;28;19931;-71
2023/05/31 04:38:02;;;;;;;;;;;12.30;99.90;;;;;;8372696;28;19971;-71
2023/05/31 04:42:05;;;;;;;;;;;12.40;99.90;;;;;;8382313;28;20466;-72
2023/05/31 04:46:09;;;;;;;;;;;12.40;99.90;;;;;;8390685;28;19978;-71
2023/05/31 04:50:11;;;;;;;;;;;12.50;99.90;;;;;;8386316;28;20004;-71
2023/05/31 05:04:13;;;;;;;;;;;12.70;99.90;;;;;;8388257;28;19967;-72
2023/05/31 05:08:15;;;;;;;;;;;12.80;99.90;;;;;;8388284;28;19924;-72
2023/05/31 05:12:17;;;;;;;;;;;12.90;99.90;;;;;;8386081;28;19924;-71
2023/05/31 05:16:18;;;;;;;;;;;12.90;99.90;;;;;;8391975;28;19978;-71
2023/05/31 05:20:20;;;;;;;;;;;13.00;99.90;;;;;;8388890;28;19924;-71
2023/05/31 05:24:22;;;;;;;;;;;13.10;99.90;;;;;;8386090;28;19936;-71
2023/05/31 05:28:24;;;;;;;;;;;13.20;99.90;;;;;;8397210;28;19928;-71
2023/05/31 05:32:25;;;;;;;;;;;13.20;99.90;;;;;;8390377;28;19970;-71
2023/05/31 05:36:27;;;;;;;;;;;13.40;99.90;;;;;;8384892;28;20129;-71
2023/05/31 05:40:29;;;;;;;;;;;13.50;99.90;;;;;;8382951;28;19924;-71
2023/05/31 05:44:30;;;;;;;;;;;13.60;99.90;;;;;;8392896;28;19925;-71
2023/05/31 05:48:33;;;;;;;;;;;13.70;99.90;;;;;;8387652;28;19994;-72
2023/05/31 05:52:35;;;;;;;;;;;13.80;99.90;;;;;;8388006;28;19964;-72
2023/05/31 05:56:36;;;;;;;;;;;13.90;99.90;;;;;;8388070;28;19932;-71
2023/05/31 06:00:38;;;;;;;;;;;14.00;99.90;;;;;;8388784;28;19928;-74
2023/05/31 06:04:40;;;;;;;;;;;14.10;99.90;;;;;;8384098;28;19940;-74
2023/05/31 06:08:42;;;;;;;;;;;14.20;99.90;;;;;;8380595;28;19924;-73
2023/05/31 06:12:44;;;;;;;;;;;14.30;99.90;;;;;;8389787;28;20412;-74
2023/05/31 06:16:46;;;;;;;;;;;14.40;99.90;;;;;;8385529;28;20376;-74
2023/05/31 06:20:47;;;;;;;;;;;14.50;99.90;;;;;;8374276;28;20295;-73
2023/05/31 06:24:49;;;;;;;;;;;14.60;99.90;;;;;;8379139;28;19936;-74
2023/05/31 06:28:53;;;;;;;;;;;14.70;99.90;;;;;;8384274;28;20503;-74
2023/05/31 06:32:55;;;;;;;;;;;14.80;99.90;;;;;;8385227;28;19982;-74
2023/05/31 06:37:00;;;;;;;;;;;14.90;99.90;;;;;;8386948;28;19928;-74
2023/05/31 06:41:02;;;;;;;;;;;15.00;99.90;;;;;;8370439;28;19924;-74
2023/05/31 06:45:04;;;;;;;;;;;15.20;99.90;;;;;;8374461;28;19924;-74
2023/05/31 06:49:06;;;;;;;;;;;15.30;99.90;;;;;;8394111;28;19924;-74
2023/05/31 06:53:13;;;;;;;;;;;15.40;99.90;;;;;;8373451;28;20380;-74
2023/05/31 06:57:14;;;;;;;;;;;15.60;99.90;;;;;;8378270;28;19928;-73
2023/05/31 07:01:16;;;;;;;;;;;15.70;99.90;;;;;;8374817;28;19929;-74
2023/05/31 07:05:18;;;;;;;;;;;15.80;99.90;;;;;;8390954;28;19979;-74
2023/05/31 07:09:20;;;;;;;;;;;16.00;99.90;;;;;;8388150;28;19978;-74
2023/05/31 07:13:22;;;;;;;;;;;16.00;99.90;;;;;;8387937;28;19986;-74
2023/05/31 07:17:24;;;;;;;;;;;16.20;99.90;;;;;;8371915;28;20477;-74
2023/05/31 07:21:26;;;;;;;;;;;16.30;99.90;;;;;;8389188;28;19924;-74
2023/05/31 07:25:28;;;;;;;;;;;16.40;99.90;;;;;;8392413;28;19947;-74
2023/05/31 07:29:29;;;;;;;;;;;16.50;99.90;;;;;;8384516;28;20338;-74
2023/05/31 07:33:31;;;;;;;;;;;16.60;99.90;;;;;;8370378;28;20422;-74
2023/05/31 07:37:33;;;;;;;;;;;16.70;99.90;;;;;;8388726;28;20406;-74
2023/05/31 07:41:34;;;;;;;;;;;16.80;99.90;;;;;;8380500;28;20176;-74
2023/05/31 07:45:38;;;;;;;;;;;16.90;99.90;;;;;;8378181;28;19925;-74
2023/05/31 07:49:40;;;;;;;;;;;17.00;99.90;;;;;;8380989;28;19966;-74
2023/05/31 07:53:41;;;;;;;;;;;17.00;99.90;;;;;;8393671;28;19971;-74
2023/05/31 07:57:43;;;;;;;;;;;17.10;99.90;;;;;;8393756;28;20038;-74
2023/05/31 08:01:46;;;;;;;;;;;17.20;99.90;;;;;;8389725;28;20389;-74
2023/05/31 08:05:49;;;;;;;;;;;17.30;99.90;;;;;;8369096;28;20363;-74
2023/05/31 08:09:50;;;;;;;;;;;17.40;99.90;;;;;;8393559;28;20327;-74
2023/05/31 08:13:52;;;;;;;;;;;17.50;99.90;;;;;;8395911;28;19951;-74
2023/05/31 08:17:55;;;;;;;;;;;17.60;99.90;;;;;;8392463;28;19936;-74
2023/05/31 08:21:56;;;;;;;;;;;17.70;99.90;;;;;;8389323;28;19979;-73
2023/05/31 08:25:58;;;;;;;;;;;17.80;99.90;;;;;;8404144;28;19925;-73
2023/05/31 08:30:00;;;;;;;;;;;17.80;99.90;;;;;;8387702;28;19978;-74
2023/05/31 08:34:01;;;;;;;;;;;17.90;99.90;;;;;;8400805;28;19925;-73
2023/05/31 08:38:03;;;;;;;;;;;18.00;99.90;;;;;;8370376;28;20412;-73
2023/05/31 08:42:10;;;;;;;;;;;18.10;99.90;;;;;;8386989;28;19932;-74
2023/05/31 08:46:14;;;;;;;;;;;18.20;99.90;;;;;;8389241;28;19962;-74
2023/05/31 08:50:17;;;;;;;;;;;18.30;99.90;;;;;;8387525;28;19928;-75
2023/05/31 08:54:18;;;;;;;;;;;18.40;99.90;;;;;;8375113;28;19934;-75
2023/05/31 08:58:20;;;;;;;;;;;18.60;99.90;;;;;;8387161;28;19997;-74
2023/05/31 09:02:22;;;;;;;;;;;18.70;99.90;;;;;;8369077;28;19932;-73
2023/05/31 09:06:25;;;;;;;;;;;18.70;99.90;;;;;;8386746;28;20502;-75
2023/05/31 09:10:28;;;;;;;;;;;18.80;99.90;;;;;;8357765;28;20370;-73
2023/05/31 09:14:30;;;;;;;;;;;19.00;99.90;;;;;;8359798;28;20388;-74
2023/05/31 09:18:39;;;;;;;;;;;19.00;99.90;;;;;;8361348;28;19982;-74
2023/05/31 09:22:41;;;;;;;;;;;19.10;99.90;;;;;;8356264;28;19925;-74
2023/05/31 09:26:47;;;;;;;;;;;19.20;99.90;;;;;;8357695;28;20307;-74
2023/05/31 09:31:09;;;;;;;;;;;19.20;99.90;;;;;;8356723;28;19970;-74
2023/05/31 09:35:15;;;;;;;;;;;19.30;99.90;;;;;;8373300;28;19970;-74
2023/05/31 09:39:16;;;;;;;;;;;19.30;99.90;;;;;;8360948;28;19994;-74
2023/05/31 09:43:18;;;;;;;;;;;19.40;99.90;;;;;;8360428;28;19952;-74
2023/05/31 09:47:24;;;;;;;;;;;19.50;99.90;;;;;;8358395;28;20372;-75
2023/05/31 09:51:26;;;;;;;;;;;19.60;99.90;;;;;;8366423;28;19928;-74
2023/05/31 09:55:39;;;;;;;;;;;19.60;99.90;;;;;;8349890;28;19952;-74
2023/05/31 09:59:40;;;;;;;;;;;19.70;99.90;;;;;;8355026;28;19972;-74
2023/05/31 10:03:43;;;;;;;;;;;19.80;99.90;;;;;;8378255;28;20670;-74
2023/05/31 10:07:46;;;;;;;;;;;19.90;99.90;;;;;;8361752;28;20395;-74
2023/05/31 10:11:50;;;;;;;;;;;20.00;99.90;;;;;;8356563;28;19936;-74
2023/05/31 10:15:53;;;;;;;;;;;20.00;99.90;;;;;;8359725;28;19929;-74
2023/05/31 10:20:06;;;;;;;;;;;20.10;99.90;;;;;;8360317;28;19932;-74
2023/05/31 10:24:09;;;;;;;;;;;20.10;99.90;;;;;;8366612;28;20330;-74
2023/05/31 10:28:12;;;;;;;;;;;20.20;99.90;;;;;;8356220;28;19929;-74
2023/05/31 10:32:23;;;;;;;;;;;20.20;99.90;;;;;;8339858;28;19994;-74
2023/05/31 10:36:25;;;;;;;;;;;20.30;99.90;;;;;;8358244;28;20320;-73
2023/05/31 10:40:45;;;;;;;;;;;20.40;99.90;;;;;;8360054;28;19970;-74
2023/05/31 10:45:10;;;;;;;;;;;20.60;99.90;;;;;;8355548;28;19979;-74
2023/05/31 10:49:13;;;;;;;;;;;20.60;99.90;;;;;;8355051;28;19932;-74
2023/05/31 10:53:15;;;;;;;;;;;20.70;99.90;;;;;;8372366;28;19924;-74
2023/05/31 10:57:17;;;;;;;;;;;20.80;99.90;;;;;;8357968;28;20425;-73
2023/05/31 11:01:20;;;;;;;;;;;20.90;99.90;;;;;;8363576;28;19924;-74
2023/05/31 11:05:24;;;;;;;;;;;20.90;99.90;;;;;;8358970;28;20027;-74
2023/05/31 11:09:26;;;;;;;;;;;21.00;99.90;;;;;;8351763;28;19932;-74
2023/05/31 11:13:48;;;;;;;;;;;21.10;99.90;;;;;;8363330;28;19925;-73
2023/05/31 11:17:54;;;;;;;;;;;21.10;99.90;;;;;;8372142;28;19928;-74
2023/05/31 11:21:57;;;;;;;;;;;21.20;99.90;;;;;;8357275;28;19928;-74
2023/05/31 11:26:07;;;;;;;;;;;21.30;99.90;;;;;;8378967;28;19924;-73
2023/05/31 11:30:09;;;;;;;;;;;21.30;99.90;;;;;;8358595;28;19932;-73
2023/05/31 11:34:18;;;;;;;;;;;21.40;99.90;;;;;;8371976;28;20887;-73
2023/05/31 11:38:19;;;;;;;;;;;21.40;99.90;;;;;;8356472;28;19928;-73
2023/05/31 11:42:22;;;;;;;;;;;21.50;99.90;;;;;;8367468;28;19924;-73
2023/05/31 11:46:24;;;;;;;;;;;21.60;99.90;;;;;;8378018;28;20010;-73
2023/05/31 11:50:26;;;;;;;;;;;21.70;99.90;;;;;;8377411;28;20453;-74
2023/05/31 11:54:29;;;;;;;;;;;21.70;99.90;;;;;;8354562;28;20299;-74
2023/05/31 11:58:31;;;;;;;;;;;21.70;99.90;;;;;;8374819;28;20372;-74
2023/05/31 12:02:32;;;;;;;;;;;21.80;99.90;;;;;;8377604;28;20667;-73
2023/05/31 12:06:35;;;;;;;;;;;21.80;99.90;;;;;;8370253;28;20437;-74
2023/05/31 12:10:36;;;;;;;;;;;21.90;99.90;;;;;;8360840;28;19971;-73
2023/05/31 12:14:48;;;;;;;;;;;21.90;99.90;;;;;;8372289;28;19932;-74
2023/05/31 12:18:50;;;;;;;;;;;22.00;99.90;;;;;;8372898;28;20750;-74
2023/05/31 12:22:52;;;;;;;;;;;22.10;99.90;;;;;;8355033;28;19929;-73
2023/05/31 12:26:54;;;;;;;;;;;22.10;99.90;;;;;;8369423;28;19924;-73
2023/05/31 12:30:56;;;;;;;;;;;22.20;99.90;;;;;;8375495;28;19982;-74
2023/05/31 12:35:05;;;;;;;;;;;22.20;99.90;;;;;;8376497;28;20304;-74
2023/05/31 12:39:12;;;;;;;;;;;22.20;99.90;;;;;;8371761;28;19939;-74
2023/05/31 12:43:18;;;;;;;;;;;22.20;99.90;;;;;;8378866;28;19932;-75
2023/05/31 12:47:23;;;;;;;;;;;22.30;99.90;;;;;;8389717;28;19982;-74
2023/05/31 12:51:25;;;;;;;;;;;22.30;99.90;;;;;;8384552;28;19960;-74
2023/05/31 12:55:26;;;;;;;;;;;22.30;99.90;;;;;;8376453;28;19940;-74
2023/05/31 12:59:28;;;;;;;;;;;22.40;99.90;;;;;;8349856;28;20364;-73
2023/05/31 13:03:30;;;;;;;;;;;22.50;99.90;;;;;;8366583;28;19924;-73
2023/05/31 13:07:32;;;;;;;;;;;22.50;99.90;;;;;;8373484;28;19924;-74
2023/05/31 13:11:34;;;;;;;;;;;22.60;99.90;;;;;;8352555;28;19936;-74
2023/05/31 13:15:37;;;;;;;;;;;22.60;99.90;;;;;;8368447;28;19997;-73
2023/05/31 13:19:39;;;;;;;;;;;22.70;99.90;;;;;;8373627;28;20668;-74
2023/05/31 13:23:43;;;;;;;;;;;22.70;99.90;;;;;;8369878;28;19924;-73
2023/05/31 13:27:45;;;;;;;;;;;22.80;99.90;;;;;;8370094;28;20565;-73
2023/05/31 13:31:46;;;;;;;;;;;22.90;99.90;;;;;;8372007;28;20010;-73
2023/05/31 13:35:48;;;;;;;;;;;22.90;99.90;;;;;;8367955;28;19928;-74
2023/05/31 13:39:51;;;;;;;;;;;22.90;99.90;;;;;;8384995;28;19932;-73
2023/05/31 13:43:53;;;;;;;;;;;23.00;99.90;;;;;;8370849;28;19978;-73
2023/05/31 13:47:55;;;;;;;;;;;22.90;99.90;;;;;;8371635;28;20082;-74
2023/05/31 13:51:56;;;;;;;;;;;22.90;99.90;;;;;;8372735;28;20940;-73
2023/05/31 13:55:58;;;;;;;;;;;22.80;99.90;;;;;;8372432;28;19933;-74
2023/05/31 14:00:05;;;;;;;;;;;22.80;99.90;;;;;;8382385;28;19925;-74
2023/05/31 14:04:07;;;;;;;;;;;22.80;99.90;;;;;;8366733;28;19936;-74
2023/05/31 14:08:09;;;;;;;;;;;22.80;99.90;;;;;;8367899;28;19987;-73
2023/05/31 14:12:11;;;;;;;;;;;22.80;99.90;;;;;;8367897;28;19933;-73
2023/05/31 14:16:13;;;;;;;;;;;22.90;99.90;;;;;;8369095;28;19924;-74
2023/05/31 14:20:15;;;;;;;;;;;22.90;99.90;;;;;;8346515;28;19975;-73
2023/05/31 14:24:17;;;;;;;;;;;22.90;99.90;;;;;;8372472;28;19941;-74
2023/05/31 14:28:19;;;;;;;;;;;23.00;99.90;;;;;;8367385;28;19955;-73
2023/05/31 14:32:20;;;;;;;;;;;23.00;99.90;;;;;;8369804;28;19978;-74
2023/05/31 14:36:22;;;;;;;;;;;23.10;99.90;;;;;;8365438;28;19963;-73
2023/05/31 14:40:24;;;;;;;;;;;23.20;99.90;;;;;;8345965;28;19925;-73
2023/05/31 14:44:25;;;;;;;;;;;23.30;99.90;;;;;;8368563;28;19932;-74
2023/05/31 14:48:27;;;;;;;;;;;23.40;99.90;;;;;;8375988;28;19947;-73
2023/05/31 14:52:29;;;;;;;;;;;23.40;99.90;;;;;;8378335;28;20995;-73
2023/05/31 14:56:31;;;;;;;;;;;23.50;99.90;;;;;;8377497;28;19932;-74
2023/05/31 15:00:32;;;;;;;;;;;23.40;99.90;;;;;;8375056;28;19935;-74
2023/05/31 15:04:34;;;;;;;;;;;23.40;99.90;;;;;;8373673;28;19925;-74
2023/05/31 15:08:36;;;;;;;;;;;23.40;99.90;;;;;;8376718;28;19929;-73
2023/05/31 15:12:37;;;;;;;;;;;23.40;99.90;;;;;;8387867;28;19940;-74
2023/05/31 15:16:39;;;;;;;;;;;23.50;99.90;;;;;;8372284;28;19939;-73
2023/05/31 15:20:41;;;;;;;;;;;23.50;99.90;;;;;;8372424;28;19933;-74
2023/05/31 15:24:43;;;;;;;;;;;23.60;99.90;;;;;;8360049;28;19928;-73
2023/05/31 15:28:44;;;;;;;;;;;23.70;99.90;;;;;;8357740;28;19925;-74
2023/05/31 15:32:46;;;;;;;;;;;23.80;99.90;;;;;;8377191;28;20862;-73
2023/05/31 15:36:48;;;;;;;;;;;23.90;99.90;;;;;;8372332;28;19972;-74
2023/05/31 15:40:50;;;;;;;;;;;24.00;99.90;;;;;;8371707;28;19933;-73
2023/05/31 15:44:52;;;;;;;;;;;24.10;99.90;;;;;;8374588;28;19928;-74
2023/05/31 15:48:53;;;;;;;;;;;24.30;99.90;;;;;;8386917;28;19924;-74
2023/05/31 15:52:55;;;;;;;;;;;24.60;99.90;;;;;;8373177;28;20570;-73
2023/05/31 15:56:57;;;;;;;;;;;25.00;99.90;;;;;;8373688;28;19929;-73
2023/05/31 16:00:59;;;;;;;;;;;25.30;99.90;;;;;;8371623;28;19929;-73
2023/05/31 16:05:01;;;;;;;;;;;25.70;99.90;;;;;;8372068;28;19933;-73
2023/05/31 16:09:02;;;;;;;;;;;26.00;99.90;;;;;;8368162;28;19932;-74
2023/05/31 16:13:08;;;;;;;;;;;26.10;99.90;;;;;;8372607;28;19976;-74
2023/05/31 16:17:09;;;;;;;;;;;26.30;99.90;;;;;;8371265;28;20308;-74
2023/05/31 16:21:11;;;;;;;;;;;26.40;99.90;;;;;;8373947;28;19928;-74
2023/05/31 16:25:13;;;;;;;;;;;26.40;99.90;;;;;;8376890;28;19929;-74
2023/05/31 16:39:34;;;;;;;;;;;26.70;99.90;;;;;;8373566;28;20006;-74
2023/05/31 16:43:35;;;;;;;;;;;26.80;99.90;;;;;;8378813;28;19929;-74
2023/05/31 16:47:37;;;;;;;;;;;26.90;99.90;;;;;;8366055;28;19928;-74
2023/05/31 16:56:43;;;;;;;;;;;26.80;99.90;;;;;;8365598;28;19935;-74
2023/05/31 17:00:45;;;;;;;;;;;26.60;99.90;;;;;;8364668;28;20356;-74
2023/05/31 17:04:47;;;;;;;;;;;26.40;99.90;;;;;;8370871;28;19935;-73
2023/05/31 17:08:48;;;;;;;;;;;26.20;99.90;;;;;;8375504;28;19935;-74
2023/05/31 17:17:54;;;;;;;;;;;25.40;99.90;;;;;;8369203;28;19923;-74
2023/05/31 17:21:57;;;;;;;;;;;25.10;99.90;;;;;;8373370;28;19924;-73
2023/05/31 17:25:59;;;;;;;;;;;24.80;99.90;;;;;;8375730;28;20024;-74
2023/05/31 17:30:00;;;;;;;;;;;24.50;99.90;;;;;;8374291;28;19932;-74
2023/05/31 17:34:04;;;;;;;;;;;24.40;99.90;;;;;;8368101;28;19978;-74
2023/05/31 17:38:06;;;;;;;;;;;24.20;99.90;;;;;;8373090;28;19924;-73
2023/05/31 17:42:08;;;;;;;;;;;24.00;99.90;;;;;;8370153;28;19925;-73
2023/05/31 17:46:10;;;;;;;;;;;23.80;99.90;;;;;;8370153;28;20387;-73
2023/05/31 17:50:12;;;;;;;;;;;23.70;99.90;;;;;;8373490;28;19933;-74
2023/05/31 17:54:13;;;;;;;;;;;23.50;99.90;;;;;;8369480;28;20391;-73
2023/05/31 17:58:15;;;;;;;;;;;23.40;99.90;;;;;;8370264;28;19924;-74
2023/05/31 18:02:17;;;;;;;;;;;23.30;99.90;;;;;;8371251;28;20433;-74
2023/05/31 18:06:19;;;;;;;;;;;23.20;99.90;;;;;;8369074;28;19955;-74
2023/05/31 18:10:20;;;;;;;;;;;23.10;99.90;;;;;;8368338;28;19994;-73
2023/05/31 18:14:22;;;;;;;;;;;23.00;99.90;;;;;;8371368;28;20288;-74
2023/05/31 18:18:24;;;;;;;;;;;22.90;99.90;;;;;;8353419;28;19948;-74
2023/05/31 18:22:26;;;;;;;;;;;22.80;99.90;;;;;;8354356;28;19936;-73
2023/05/31 18:26:28;;;;;;;;;;;22.70;99.90;;;;;;8362415;28;19967;-74
2023/05/31 18:30:32;;;;;;;;;;;22.60;99.90;;;;;;8357793;28;19948;-74
2023/05/31 18:34:34;;;;;;;;;;;22.50;99.90;;;;;;8360040;28;19931;-74
2023/05/31 18:38:43;;;;;;;;;;;22.30;99.90;;;;;;8356953;28;19928;-73
2023/05/31 18:42:44;;;;;;;;;;;22.20;99.90;;;;;;8355944;28;19933;-74
2023/05/31 18:46:46;;;;;;;;;;;22.00;99.90;;;;;;8360408;28;19929;-74
2023/05/31 18:50:48;;;;;;;;;;;21.80;99.90;;;;;;8368451;28;20499;-73
2023/05/31 18:54:50;;;;;;;;;;;21.50;99.90;;;;;;8365460;28;20001;-73
2023/05/31 18:58:51;;;;;;;;;;;21.40;99.90;;;;;;8369354;28;19987;-73
2023/05/31 19:02:53;;;;;;;;;;;21.20;99.90;;;;;;8366944;28;20676;-73
2023/05/31 19:06:55;;;;;;;;;;;21.10;99.90;;;;;;8368569;28;19967;-73
2023/05/31 19:10:57;;;;;;;;;;;21.00;99.90;;;;;;8368413;28;19975;-74
2023/05/31 19:14:58;;;;;;;;;;;20.80;99.90;;;;;;8364094;28;19928;-73
2023/05/31 19:19:01;;;;;;;;;;;20.60;99.90;;;;;;8364102;28;20787;-73
2023/05/31 19:23:03;;;;;;;;;;;20.60;99.90;;;;;;8364598;28;19925;-74
2023/05/31 19:27:05;;;;;;;;;;;20.40;99.90;;;;;;8386065;28;19925;-73
2023/05/31 19:31:07;;;;;;;;;;;20.30;99.90;;;;;;8366933;28;19925;-73
2023/05/31 19:35:09;;;;;;;;;;;20.10;99.90;;;;;;8380070;28;20157;-73
2023/05/31 19:39:15;;;;;;;;;;;20.00;99.90;;;;;;8364627;28;19925;-73
2023/05/31 19:43:17;;;;;;;;;;;19.90;99.90;;;;;;8359272;28;19928;-73
2023/05/31 19:47:19;;;;;;;;;;;19.80;99.90;;;;;;8378064;28;19931;-73
2023/05/31 19:51:22;;;;;;;;;;;19.70;99.90;;;;;;8364839;28;19931;-73
2023/05/31 19:55:24;;;;;;;;;;;19.50;99.90;;;;;;8379972;28;20542;-74
2023/05/31 19:59:26;;;;;;;;;;;19.30;99.90;;;;;;8375895;28;20241;-74
2023/05/31 20:03:27;;;;;;;;;;;19.20;99.90;;;;;;8374259;28;19982;-74
2023/05/31 20:07:29;;;;;;;;;;;19.20;99.90;;;;;;8370779;28;20300;-73
2023/05/31 20:11:33;;;;;;;;;;;19.10;99.90;;;;;;8378797;28;20062;-73
2023/05/31 20:15:35;;;;;;;;;;;19.00;99.90;;;;;;8364592;28;19928;-74
2023/05/31 20:19:36;;;;;;;;;;;18.90;99.90;;;;;;8376882;28;19928;-74
2023/05/31 20:23:38;;;;;;;;;;;18.90;99.90;;;;;;8374435;28;19937;-74
2023/05/31 20:27:40;;;;;;;;;;;18.80;99.90;;;;;;8377244;28;19985;-74
2023/05/31 20:37:13;;;;;;;;;;;18.70;99.90;;;;;;8377040;28;19973;-73
2023/05/31 20:41:15;;;;;;;;;;;18.60;99.90;;;;;;8375741;28;19948;-73
2023/05/31 20:45:16;;;;;;;;;;;18.50;99.90;;;;;;8375510;28;19928;-74
2023/05/31 20:49:18;;;;;;;;;;;18.50;99.90;;;;;;8372045;28;19972;-73
2023/05/31 20:53:20;;;;;;;;;;;18.40;99.90;;;;;;8374509;28;19935;-73
2023/05/31 20:57:22;;;;;;;;;;;18.30;99.90;;;;;;8374457;28;19929;-73
2023/05/31 21:01:23;;;;;;;;;;;18.20;99.90;;;;;;8374617;28;19928;-74
2023/05/31 21:05:25;;;;;;;;;;;18.20;99.90;;;;;;8387603;28;19934;-73
2023/05/31 21:24:37;;;;;;;;;;;17.80;99.90;;;;;;8391196;28;20078;-74
2023/05/31 21:28:40;;;;;;;;;;;17.70;99.90;;;;;;8390357;28;19925;-74
2023/05/31 21:47:51;;;;;;;;;;;17.20;99.90;;;;;;8381169;28;19924;-74
2023/05/31 22:01:59;;;;;;;;;;;17.00;99.90;;;;;;8389718;28;19986;-74
2023/05/31 22:06:01;;;;;;;;;;;16.90;99.90;;;;;;8387181;28;19985;-74
2023/05/31 22:10:06;;;;;;;;;;;16.80;99.90;;;;;;8390761;28;19928;-73
2023/05/31 22:14:08;;;;;;;;;;;16.70;99.90;;;;;;8387600;28;20394;-73
2023/05/31 22:18:13;;;;;;;;;;;16.60;99.90;;;;;;8386661;28;19928;-74
2023/05/31 22:22:15;;;;;;;;;;;16.50;99.90;;;;;;8390501;28;19924;-74
2023/05/31 22:26:18;;;;;;;;;;;16.40;99.90;;;;;;8369800;28;19956;-73
2023/05/31 22:30:20;;;;;;;;;;;16.30;99.90;;;;;;8392850;28;19928;-73
2023/05/31 22:34:24;;;;;;;;;;;16.20;99.90;;;;;;8388934;28;20819;-73
2023/05/31 22:38:26;;;;;;;;;;;16.10;99.90;;;;;;8390486;28;19925;-74
2023/05/31 22:42:27;;;;;;;;;;;16.00;99.90;;;;;;8393415;28;20384;-73
2023/05/31 22:46:29;;;;;;;;;;;15.90;99.90;;;;;;8384448;28;19941;-73
2023/05/31 23:11:02;;;;;;;;;;;15.40;99.90;;;;;;8391464;28;19970;-74
2023/05/31 23:15:05;;;;;;;;;;;15.30;99.90;;;;;;8397119;28;19975;-74
2023/05/31 23:19:07;;;;;;;;;;;15.30;99.90;;;;;;8394989;28;19924;-74
2023/05/31 23:23:08;;;;;;;;;;;15.20;99.90;;;;;;8380187;28;20287;-74
2023/05/31 23:27:10;;;;;;;;;;;15.20;99.90;;;;;;8395231;28;19924;-74
2023/05/31 23:31:12;;;;;;;;;;;15.20;99.90;;;;;;8397347;28;19931;-74
2023/05/31 23:35:13;;;;;;;;;;;15.20;99.90;;;;;;8419062;28;20435;-74
2023/05/31 23:39:16;;;;;;;;;;;15.10;99.90;;;;;;8377866;28;20334;-73
2023/05/31 23:43:18;;;;;;;;;;;15.20;99.90;;;;;;8398312;28;19925;-74
2023/05/31 23:47:19;;;;;;;;;;;15.20;99.90;;;;;;8382439;28;19925;-74
2023/05/31 23:51:21;;;;;;;;;;;15.20;99.90;;;;;;8389832;28;20393;-74
2023/05/31 23:55:23;;;;;;;;;;;15.20;99.90;;;;;;8377680;28;20229;-74
2023/05/31 23:59:25;;;;;;;;;;;15.20;99.90;;;;;;8380045;28;19925;-74
